Time;durP1;ratioP1;P1;durP2;ratioP2;P2;SDS_P1;SDS_P2;PMS_P1;PMS_P2;Temp;Humidity;BMP_temperature;BMP_pressure;BME280_temperature;BME280_humidity;BME280_pressure;Samples;Min_cycle;Max_cycle;Signal;HPM_P1;HPM_P2
2021/12/14 00:01:25;;;;;;;15.80;11.20;;;;;;;1.01;88.33;100381.22;5004797;28;20616;-71
2021/12/14 00:04:00;;;;;;;15.00;10.63;;;;;;;0.98;88.73;100391.94;5005496;28;20897;-71
2021/12/14 00:06:28;;;;;;;14.40;10.60;;;;;;;0.96;89.16;100390.31;5009902;28;20227;-71
2021/12/14 00:08:57;;;;;;;16.40;12.00;;;;;;;1.42;86.42;100378.75;5002375;28;20235;-71
2021/12/14 00:16:43;;;;;;;16.00;11.10;;;;;;;1.49;85.41;100375.66;5003695;28;20224;-71
2021/12/14 00:19:10;;;;;;;15.23;10.70;;;;;;;1.45;86.37;100381.19;5016893;28;20236;-71
2021/12/14 00:21:37;;;;;;;18.60;12.03;;;;;;;1.27;86.06;100386.66;5016732;28;20221;-71
2021/12/14 00:24:11;;;;;;;17.73;12.10;;;;;;;2.34;85.30;100349.03;5000753;28;20736;-71
2021/12/14 00:26:46;;;;;;;14.67;12.10;;;;;;;1.62;85.67;100383.59;5009608;28;20319;-71
2021/12/14 00:29:19;;;;;;;16.63;11.10;;;;;;;2.13;81.43;100352.19;5005144;28;20768;-71
2021/12/14 00:31:48;;;;;;;18.53;12.43;;;;;;;1.94;83.77;100376.25;5006005;28;20225;-71
2021/12/14 00:34:23;;;;;;;18.27;12.40;;;;;;;3.41;79.47;100303.78;5007711;28;20221;-71
2021/12/14 00:36:52;;;;;;;17.43;12.00;;;;;;;1.92;81.65;100372.88;5007812;28;20236;-71
2021/12/14 00:39:19;;;;;;;18.67;12.17;;;;;;;1.46;84.13;100390.78;5007304;28;20635;-71
2021/12/14 00:41:46;;;;;;;15.67;11.70;;;;;;;1.16;85.68;100391.72;5008024;28;20237;-70
2021/12/14 00:44:13;;;;;;;15.93;11.43;;;;;;;1.56;84.20;100382.19;5007740;28;20748;-70
2021/12/14 00:46:40;;;;;;;17.27;12.13;;;;;;;1.24;85.98;100394.72;5007086;28;20233;-71
2021/12/14 00:49:10;;;;;;;18.33;11.70;;;;;;;1.87;84.44;100377.59;5007167;28;20234;-71
2021/12/14 00:51:37;;;;;;;16.40;11.67;;;;;;;1.83;83.23;100378.72;5008265;28;20221;-71
2021/12/14 00:54:10;;;;;;;18.10;12.57;;;;;;;2.43;84.50;100361.59;4998405;28;20576;-71
2021/12/14 00:56:39;;;;;;;19.43;12.60;;;;;;;1.44;85.20;100408.44;5001528;28;20844;-71
2021/12/14 00:59:08;;;;;;;18.13;12.23;;;;;;;1.96;83.55;100384.03;5001158;28;20280;-71
2021/12/14 01:01:46;;;;;;;17.03;11.93;;;;;;;1.16;87.15;100407.47;5007433;28;20225;-71
2021/12/14 01:04:22;;;;;;;16.70;11.70;;;;;;;1.47;86.49;100403.81;5008273;28;20221;-70
2021/12/14 01:06:50;;;;;;;16.53;11.90;;;;;;;1.18;86.46;100403.00;5006669;28;20243;-71
2021/12/14 01:09:27;;;;;;;16.13;11.77;;;;;;;1.59;83.46;100378.53;5006000;28;20221;-71
2021/12/14 01:11:58;;;;;;;17.07;12.23;;;;;;;1.39;84.31;100396.38;5007396;28;20260;-71
2021/12/14 01:14:41;;;;;;;16.00;12.17;;;;;;;3.08;80.85;100335.19;5007379;28;20225;-72
2021/12/14 01:17:40;;;;;;;14.70;11.63;;;;;;;1.01;86.65;100412.75;5006790;28;20225;-71
2021/12/14 01:20:11;;;;;;;15.60;10.83;;;;;;;2.13;84.99;100380.28;5006408;28;20220;-71
2021/12/14 01:22:45;;;;;;;15.30;9.97;;;;;;;1.73;83.85;100396.06;4989025;28;21897;-71
2021/12/14 01:25:23;;;;;;;15.40;11.20;;;;;;;3.57;79.05;100324.63;5000025;28;20221;-71
2021/12/14 01:28:19;;;;;;;15.70;10.07;;;;;;;3.33;79.86;100336.97;5023495;28;20224;-71
2021/12/14 01:31:04;;;;;;;18.60;11.17;;;;;;;3.28;79.75;100341.69;5006995;28;20269;-72
2021/12/14 01:33:33;;;;;;;16.33;11.53;;;;;;;2.42;82.01;100375.69;5007245;28;20221;-71
2021/12/14 01:36:07;;;;;;;16.77;11.53;;;;;;;2.23;80.44;100373.47;5006714;28;20246;-69
2021/12/14 01:38:45;;;;;;;17.10;11.20;;;;;;;1.49;84.96;100406.38;5006873;28;20240;-72
2021/12/14 01:41:15;;;;;;;16.23;12.47;;;;;;;2.55;82.68;100354.66;5014130;28;20337;-72
2021/12/14 01:43:52;;;;;;;15.53;10.73;;;;;;;1.89;84.70;100378.34;5005357;28;20613;-71
2021/12/14 01:46:28;;;;;;;14.17;10.27;;;;;;;2.15;82.77;100369.66;5005069;28;20228;-71
2021/12/14 01:48:56;;;;;;;16.33;11.70;;;;;;;1.78;84.23;100388.72;5007921;28;20229;-71
2021/12/14 01:51:24;;;;;;;18.17;12.27;;;;;;;1.72;82.26;100379.44;5006799;28;20229;-71
2021/12/14 01:53:54;;;;;;;14.80;11.13;;;;;;;2.09;84.25;100376.16;5006538;28;20233;-71
2021/12/14 01:56:27;;;;;;;15.43;11.67;;;;;;;0.69;87.49;100417.34;4998563;28;20267;-70
2021/12/14 01:59:07;;;;;;;17.97;12.03;;;;;;;0.96;90.16;100417.44;5007561;28;20234;-71
2021/12/14 02:01:42;;;;;;;18.13;12.13;;;;;;;0.85;87.71;100417.25;5012754;28;20225;-71
2021/12/14 02:04:18;;;;;;;16.07;11.90;;;;;;;0.91;88.34;100410.78;5014401;28;20229;-71
2021/12/14 02:06:57;;;;;;;15.47;11.70;;;;;;;0.84;89.18;100418.19;4996359;28;20251;-70
2021/12/14 02:09:27;;;;;;;17.17;12.83;;;;;;;0.97;87.20;100415.66;5005515;28;20635;-70
2021/12/14 02:11:56;;;;;;;19.37;13.33;;;;;;;0.78;88.15;100421.19;5006399;28;20221;-71
2021/12/14 02:14:26;;;;;;;18.37;13.10;;;;;;;0.75;88.73;100409.06;5006000;28;20221;-71
2021/12/14 02:17:03;;;;;;;19.33;14.10;;;;;;;0.46;89.80;100421.31;5005279;28;20597;-71
2021/12/14 02:19:31;;;;;;;17.10;12.60;;;;;;;0.99;89.25;100411.16;5007304;28;20233;-71
2021/12/14 02:22:00;;;;;;;18.47;12.43;;;;;;;1.45;85.59;100387.31;5008443;28;20225;-71
2021/12/14 02:24:30;;;;;;;18.97;12.70;;;;;;;1.91;86.08;100379.06;5005782;28;20237;-70
2021/12/14 02:26:59;;;;;;;17.33;12.50;;;;;;;0.76;88.47;100425.69;5017063;28;20728;-71
2021/12/14 02:29:35;;;;;;;20.00;13.83;;;;;;;1.89;84.42;100362.56;5021515;28;20711;-71
2021/12/14 02:32:07;;;;;;;21.33;13.37;;;;;;;1.52;85.00;100390.41;5007460;28;20600;-71
2021/12/14 02:34:47;;;;;;;18.07;12.97;;;;;;;1.23;85.99;100403.56;5006486;28;20229;-71
2021/12/14 02:37:19;;;;;;;17.17;12.90;;;;;;;0.97;88.81;100420.91;5006363;28;20217;-71
2021/12/14 02:39:49;;;;;;;18.87;13.30;;;;;;;1.37;86.08;100397.44;5008084;28;20223;-71
2021/12/14 02:42:22;;;;;;;22.20;13.60;;;;;;;0.54;89.28;100407.72;5007622;28;20217;-71
2021/12/14 02:44:53;;;;;;;18.90;12.63;;;;;;;0.86;88.38;100403.19;5007335;28;20248;-70
2021/12/14 02:47:21;;;;;;;19.83;12.23;;;;;;;1.77;87.50;100368.63;5007430;28;20230;-71
2021/12/14 02:49:49;;;;;;;20.37;12.67;;;;;;;2.09;84.86;100365.63;5006988;28;20225;-71
2021/12/14 02:52:31;;;;;;;17.50;12.90;;;;;;;2.97;81.10;100344.72;5005477;28;20217;-70
2021/12/14 02:55:07;;;;;;;19.57;14.00;;;;;;;2.52;79.38;100351.38;5002428;28;20229;-71
2021/12/14 02:57:37;;;;;;;17.40;12.17;;;;;;;3.05;77.64;100330.97;5002988;28;20231;-71
2021/12/14 03:00:17;;;;;;;18.70;13.83;;;;;;;3.91;76.20;100335.34;5005764;28;20231;-71
2021/12/14 03:02:45;;;;;;;17.50;13.73;;;;;;;3.80;74.82;100330.84;5003282;28;20577;-71
2021/12/14 03:05:18;;;;;;;18.73;13.83;;;;;;;3.60;75.78;100357.84;5007609;28;20221;-71
2021/12/14 03:07:51;;;;;;;17.83;13.17;;;;;;;3.92;74.50;100352.00;5006385;28;20221;-71
2021/12/14 03:10:36;;;;;;;19.13;14.87;;;;;;;3.60;75.34;100363.97;5006344;28;20228;-70
2021/12/14 03:13:09;;;;;;;22.30;14.43;;;;;;;3.75;75.03;100367.28;5007102;28;20227;-71
2021/12/14 03:15:48;;;;;;;24.87;15.57;;;;;;;3.24;76.50;100391.16;5003189;28;20240;-71
2021/12/14 03:18:31;;;;;;;22.27;15.43;;;;;;;3.70;75.45;100390.53;4999969;28;20221;-71
2021/12/14 03:21:00;;;;;;;25.00;15.03;;;;;;;3.95;74.77;100384.28;5006885;28;20229;-71
2021/12/14 03:23:34;;;;;;;22.93;15.50;;;;;;;4.03;74.68;100373.19;5009301;28;20220;-71
2021/12/14 03:26:04;;;;;;;24.63;15.77;;;;;;;3.99;74.54;100358.50;5002444;28;20248;-71
2021/12/14 03:28:33;;;;;;;27.60;16.80;;;;;;;1.04;84.54;100406.47;5004314;28;20233;-71
2021/12/14 03:31:09;;;;;;;20.83;15.23;;;;;;;1.14;87.40;100425.13;5003302;28;20232;-71
2021/12/14 03:33:43;;;;;;;22.37;15.27;;;;;;;2.29;85.08;100394.13;5004722;28;20259;-71
2021/12/14 03:36:16;;;;;;;26.90;17.40;;;;;;;3.40;78.13;100356.66;4997955;28;20734;-71
2021/12/14 03:38:50;;;;;;;26.20;17.07;;;;;;;3.10;78.08;100384.25;4999746;28;20231;-71
2021/12/14 03:41:25;;;;;;;29.20;17.90;;;;;;;3.48;76.04;100371.94;5005173;28;20232;-71
2021/12/14 03:44:10;;;;;;;30.17;18.70;;;;;;;3.32;76.96;100382.72;5004348;28;20795;-71
2021/12/14 03:46:54;;;;;;;29.83;17.90;;;;;;;3.75;76.14;100375.19;5001222;28;20616;-71
2021/12/14 03:49:37;;;;;;;30.60;18.43;;;;;;;3.97;75.53;100368.34;4998812;28;20239;-71
2021/12/14 03:52:13;;;;;;;29.70;17.53;;;;;;;1.76;85.56;100437.94;4994596;28;20213;-71
2021/12/14 03:54:41;;;;;;;27.27;17.33;;;;;;;0.94;87.60;100436.84;4995584;28;20547;-71
2021/12/14 03:57:10;;;;;;;34.23;19.17;;;;;;;2.31;83.51;100399.28;4996648;28;20259;-71
2021/12/14 03:59:37;;;;;;;29.17;18.10;;;;;;;1.52;85.89;100429.84;5004233;28;20247;-71
2021/12/14 04:02:08;;;;;;;34.73;19.23;;;;;;;3.15;80.14;100357.53;5001510;28;20225;-72
2021/12/14 04:04:52;;;;;;;42.93;22.43;;;;;;;2.98;79.43;100361.34;5004528;28;20251;-71
2021/12/14 04:07:21;;;;;;;39.63;21.80;;;;;;;3.52;78.11;100344.38;5001250;28;20731;-71
2021/12/14 04:09:48;;;;;;;39.97;21.63;;;;;;;4.04;75.11;100335.25;5010250;28;20237;-71
2021/12/14 04:12:17;;;;;;;35.43;22.17;;;;;;;3.08;78.63;100364.19;5008723;28;20247;-71
2021/12/14 04:14:49;;;;;;;36.57;21.83;;;;;;;2.10;82.48;100399.75;5008131;28;20233;-71
2021/12/14 04:17:18;;;;;;;34.77;20.20;;;;;;;1.99;83.70;100390.88;5003280;28;20226;-71
2021/12/14 04:19:45;;;;;;;34.30;20.50;;;;;;;1.72;86.68;100420.69;5003451;28;20233;-71
2021/12/14 04:22:16;;;;;;;40.93;20.97;;;;;;;3.21;79.58;100350.03;5007851;28;20227;-70
2021/12/14 04:24:46;;;;;;;43.87;23.03;;;;;;;3.36;78.47;100355.19;5005802;28;20235;-71
2021/12/14 04:27:23;;;;;;;41.50;22.80;;;;;;;3.63;78.02;100352.34;5007027;28;20237;-71
2021/12/14 04:29:51;;;;;;;43.43;22.97;;;;;;;3.59;76.79;100337.69;5007724;28;20693;-71
2021/12/14 04:32:20;;;;;;;38.97;22.20;;;;;;;3.38;77.46;100348.84;5006385;28;20228;-71
2021/12/14 04:34:49;;;;;;;46.13;24.00;;;;;;;3.99;75.77;100337.38;5009022;28;20230;-74
2021/12/14 04:37:17;;;;;;;46.27;22.43;;;;;;;3.73;76.59;100352.53;5006782;28;20213;-68
2021/12/14 04:40:19;;;;;;;43.73;23.53;;;;;;;3.70;76.93;100347.47;5008053;28;20233;-71
2021/12/14 04:53:51;;;;;;;52.13;23.13;;;;;;;3.49;76.58;100311.16;5007962;28;20333;-70
2021/12/14 04:56:42;;;;;;;50.13;23.43;;;;;;;1.86;81.75;100349.59;5001280;28;20229;-71
2021/12/14 04:59:17;;;;;;;55.47;24.27;;;;;;;1.14;89.09;100391.81;5000828;28;20242;-71
2021/12/14 05:01:47;;;;;;;55.47;23.10;;;;;;;2.19;85.58;100373.78;5001556;28;20229;-71
2021/12/14 05:04:21;;;;;;;49.80;21.67;;;;;;;3.51;78.72;100317.16;5006529;28;20233;-71
2021/12/14 05:06:52;;;;;;;58.00;23.03;;;;;;;2.56;79.54;100331.78;5007277;28;20259;-71
2021/12/14 05:09:29;;;;;;;58.40;22.37;;;;;;;1.33;86.84;100365.25;5005657;28;20229;-71
2021/12/14 05:12:16;;;;;;;61.63;23.20;;;;;;;2.85;83.95;100333.25;5005402;28;20431;-71
2021/12/14 05:14:45;;;;;;;64.97;23.30;;;;;;;3.54;78.15;100310.81;5007784;28;21602;-71
2021/12/14 05:17:20;;;;;;;57.10;21.47;;;;;;;3.61;78.03;100317.34;5003261;28;20221;-71
2021/12/14 05:19:50;;;;;;;51.43;21.63;;;;;;;3.21;79.26;100323.66;5001277;28;20247;-71
2021/12/14 05:22:22;;;;;;;64.03;22.60;;;;;;;3.44;77.96;100313.28;5017308;28;20221;-71
2021/12/14 05:24:52;;;;;;;52.33;19.73;;;;;;;3.54;77.81;100316.06;5005267;28;20237;-71
2021/12/14 05:27:31;;;;;;;70.60;21.23;;;;;;;0.80;89.86;100386.00;5011998;28;20220;-71
2021/12/14 05:30:12;;;;;;;66.03;20.77;;;;;;;1.86;87.83;100360.13;5006688;28;20243;-71
2021/12/14 05:32:40;;;;;;;72.93;20.90;;;;;;;3.73;78.64;100292.66;5006193;28;20664;-71
2021/12/14 05:35:10;;;;;;;71.30;20.80;;;;;;;3.50;78.42;100325.19;5007627;28;20226;-71
2021/12/14 05:37:45;;;;;;;61.63;19.80;;;;;;;3.74;77.24;100307.56;5006540;28;20229;-71
2021/12/14 05:43:16;;;;;;;71.27;20.13;;;;;;;4.37;74.70;100320.44;4997895;28;20727;-71
2021/12/14 05:45:47;;;;;;;58.50;20.50;;;;;;;3.47;77.61;100331.50;5007407;28;20228;-71
2021/12/14 05:48:23;;;;;;;54.10;19.30;;;;;;;3.56;77.39;100312.38;5003242;28;20229;-71
2021/12/14 05:50:54;;;;;;;62.67;19.37;;;;;;;1.84;83.60;100356.75;5006133;28;20225;-71
2021/12/14 05:53:36;;;;;;;58.10;19.30;;;;;;;2.45;84.11;100361.50;5006453;28;20474;-71
2021/12/14 05:56:12;;;;;;;48.83;17.67;;;;;;;3.67;78.19;100316.03;4996916;28;20946;-71
2021/12/14 05:58:40;;;;;;;47.17;17.13;;;;;;;3.12;79.08;100326.97;5004357;28;20247;-71
2021/12/14 06:01:10;;;;;;;56.47;18.87;;;;;;;2.12;81.51;100347.00;5006956;28;20228;-71
2021/12/14 06:03:42;;;;;;;48.43;16.90;;;;;;;0.90;88.21;100383.66;5006151;28;20603;-71
2021/12/14 06:06:16;;;;;;;51.47;17.47;;;;;;;2.57;84.32;100349.28;4996332;28;20240;-71
2021/12/14 06:08:44;;;;;;;43.97;17.83;;;;;;;2.74;81.26;100330.50;5003362;28;20632;-71
2021/12/14 06:11:23;;;;;;;58.00;17.33;;;;;;;3.17;79.15;100313.44;4999496;28;20232;-71
2021/12/14 06:13:51;;;;;;;40.43;15.37;;;;;;;3.38;78.46;100311.09;5005835;28;20224;-71
2021/12/14 06:16:26;;;;;;;53.10;17.53;;;;;;;2.60;80.18;100331.47;5004561;28;20240;-71
2021/12/14 06:19:10;;;;;;;55.37;16.87;;;;;;;0.24;91.46;100385.00;5002076;28;20259;-71
2021/12/14 06:21:37;;;;;;;43.53;17.10;;;;;;;2.66;83.41;100317.03;5006239;28;20231;-71
2021/12/14 06:24:07;;;;;;;41.20;15.77;;;;;;;1.97;85.07;100343.59;4998480;28;20221;-71
2021/12/14 06:26:41;;;;;;;41.43;16.13;;;;;;;2.17;83.04;100325.66;5001881;28;20235;-71
2021/12/14 06:29:13;;;;;;;40.57;14.83;;;;;;;2.80;81.13;100305.53;5005703;28;20590;-71
2021/12/14 06:31:41;;;;;;;47.47;16.20;;;;;;;1.41;82.25;100320.03;5005448;28;20221;-71
2021/12/14 06:34:28;;;;;;;34.03;14.10;;;;;;;0.66;91.01;100356.25;5005346;28;20236;-72
2021/12/14 06:37:19;;;;;;;31.80;13.20;;;;;;;0.23;92.39;100357.06;5005329;28;21732;-71
2021/12/14 06:39:58;;;;;;;49.00;16.97;;;;;;;2.56;83.53;100276.47;5005892;28;20225;-71
2021/12/14 06:42:25;;;;;;;40.60;17.57;;;;;;;2.80;80.36;100274.75;5004189;28;20235;-71
2021/12/14 06:45:22;;;;;;;47.33;18.30;;;;;;;2.50;80.96;100304.09;5005612;28;20233;-71
2021/12/14 06:47:53;;;;;;;50.23;20.53;;;;;;;2.76;80.20;100309.31;5001799;28;20228;-71
2021/12/14 06:50:27;;;;;;;47.20;15.63;;;;;;;-0.09;90.95;100374.66;5005022;28;20869;-70
2021/12/14 06:53:08;;;;;;;35.00;16.47;;;;;;;0.98;90.00;100378.78;5003600;28;20224;-71
2021/12/14 06:55:36;;;;;;;53.27;18.93;;;;;;;1.87;83.12;100355.69;5005522;28;20350;-71
2021/12/14 06:58:09;;;;;;;47.43;17.83;;;;;;;2.35;82.22;100349.91;5005082;28;20231;-71
2021/12/14 07:00:48;;;;;;;50.23;17.73;;;;;;;2.78;80.50;100329.34;5010399;28;20655;-71
2021/12/14 07:03:16;;;;;;;48.80;19.90;;;;;;;2.84;79.49;100323.63;4999067;28;20599;-71
2021/12/14 07:05:48;;;;;;;45.70;18.53;;;;;;;2.74;79.44;100332.31;5005872;28;20233;-72
2021/12/14 07:08:24;;;;;;;46.97;17.77;;;;;;;2.92;79.44;100338.94;5011135;28;20216;-71
2021/12/14 07:10:52;;;;;;;50.67;19.00;;;;;;;2.35;80.14;100334.94;5013276;28;20232;-71
2021/12/14 07:13:34;;;;;;;38.57;16.77;;;;;;;2.61;79.89;100346.34;5006089;28;20231;-71
2021/12/14 07:16:04;;;;;;;40.33;17.63;;;;;;;2.42;80.22;100353.81;5006399;28;20225;-70
2021/12/14 07:18:35;;;;;;;40.97;17.80;;;;;;;2.78;79.75;100349.56;5000362;28;20264;-71
2021/12/14 07:21:02;;;;;;;45.63;18.73;;;;;;;2.79;79.35;100346.00;5004893;28;20912;-71
2021/12/14 07:23:35;;;;;;;47.00;18.67;;;;;;;2.60;80.36;100363.09;5004129;28;20227;-71
2021/12/14 07:26:07;;;;;;;44.33;18.10;;;;;;;2.50;80.09;100356.75;5001060;28;20257;-71
2021/12/14 07:28:40;;;;;;;47.47;17.87;;;;;;;2.63;80.10;100356.75;5003282;28;20247;-71
2021/12/14 07:31:20;;;;;;;47.97;18.53;;;;;;;2.34;81.30;100367.47;5003598;28;20237;-71
2021/12/14 07:33:51;;;;;;;48.43;16.90;;;;;;;2.45;81.54;100366.75;5001740;28;20225;-71
2021/12/14 07:36:26;;;;;;;49.90;18.13;;;;;;;2.68;80.58;100352.84;5005605;28;20719;-71
2021/12/14 07:38:59;;;;;;;53.50;19.10;;;;;;;2.94;79.65;100365.16;5004454;28;20239;-71
2021/12/14 07:41:37;;;;;;;51.17;18.80;;;;;;;2.78;79.36;100357.47;5003696;28;20217;-71
2021/12/14 07:44:11;;;;;;;56.03;18.90;;;;;;;0.89;88.05;100442.41;5004605;28;20235;-71
2021/12/14 07:46:52;;;;;;;53.17;19.53;;;;;;;2.81;80.81;100407.34;5002783;28;20822;-71
2021/12/14 07:49:33;;;;;;;52.23;19.90;;;;;;;2.75;79.90;100419.16;4998639;28;20233;-71
2021/12/14 07:52:09;;;;;;;47.97;19.10;;;;;;;2.60;81.00;100422.81;5004317;28;20224;-71
2021/12/14 07:54:52;;;;;;;51.33;18.87;;;;;;;2.47;81.31;100426.25;4999128;28;20784;-71
2021/12/14 07:57:23;;;;;;;55.50;20.20;;;;;;;1.53;82.97;100410.47;5002356;28;20232;-71
2021/12/14 07:59:54;;;;;;;51.27;18.60;;;;;;;0.92;90.70;100465.00;5005401;28;20239;-71
2021/12/14 08:02:27;;;;;;;56.87;20.53;;;;;;;0.21;92.10;100458.63;5004273;28;20761;-71
2021/12/14 08:05:26;;;;;;;49.43;19.27;;;;;;;1.42;89.19;100416.38;5003063;28;20221;-71
2021/12/14 08:08:30;;;;;;;65.50;20.07;;;;;;;1.78;86.07;100396.59;5001534;28;20235;-71
2021/12/14 08:14:14;;;;;;;52.40;21.47;;;;;;;1.91;84.11;100413.28;4990767;28;20221;-71
2021/12/14 08:16:53;;;;;;;48.40;19.70;;;;;;;1.87;86.41;100397.78;5009720;28;20981;-71
2021/12/14 08:19:42;;;;;;;68.83;20.77;;;;;;;1.36;87.85;100430.78;4993514;28;20235;-71
2021/12/14 08:22:29;;;;;;;59.33;20.27;;;;;;;3.08;80.62;100383.47;5001954;28;20225;-71
2021/12/14 08:24:56;;;;;;;53.67;21.83;;;;;;;3.42;79.09;100397.81;4995162;28;21595;-71
2021/12/14 08:27:30;;;;;;;67.83;22.63;;;;;;;3.17;77.95;100374.06;5003397;28;20221;-71
2021/12/14 08:30:01;;;;;;;87.27;22.40;;;;;;;0.51;88.85;100470.94;5004718;28;20236;-71
2021/12/14 08:32:39;;;;;;;67.37;21.90;;;;;;;1.35;88.90;100449.25;5004175;28;20597;-71
2021/12/14 08:35:12;;;;;;;66.10;21.80;;;;;;;0.30;90.87;100462.50;5004484;28;20231;-71
2021/12/14 08:37:46;;;;;;;61.30;20.90;;;;;;;2.67;83.77;100387.22;5003675;28;20690;-71
2021/12/14 08:40:20;;;;;;;63.60;23.73;;;;;;;3.00;79.99;100378.75;5004169;28;20214;-71
2021/12/14 08:43:09;;;;;;;62.40;24.00;;;;;;;2.68;80.77;100399.44;5004266;28;21050;-71
2021/12/14 08:45:39;;;;;;;67.77;28.53;;;;;;;3.19;79.56;100375.66;5011340;28;20249;-71
2021/12/14 08:48:18;;;;;;;74.37;26.53;;;;;;;3.18;79.51;100391.59;5004348;28;20228;-71
2021/12/14 08:50:54;;;;;;;56.63;24.00;;;;;;;2.77;79.46;100395.34;5004522;28;20773;-71
2021/12/14 08:53:24;;;;;;;64.00;25.37;;;;;;;1.49;85.38;100437.91;5008034;28;20228;-71
2021/12/14 08:55:55;;;;;;;62.27;24.93;;;;;;;0.55;89.39;100468.03;4998755;28;20234;-72
2021/12/14 08:58:24;;;;;;;52.03;22.50;;;;;;;1.45;86.79;100431.13;5007197;28;20218;-71
2021/12/14 09:00:55;;;;;;;50.33;21.77;;;;;;;1.13;86.12;100457.63;5007049;28;20233;-71
2021/12/14 09:03:32;;;;;;;49.70;24.30;;;;;;;0.73;86.81;100471.34;5006233;28;20872;-71
2021/12/14 09:06:05;;;;;;;46.10;23.33;;;;;;;2.02;84.60;100452.06;5000228;28;20234;-71
2021/12/14 09:08:33;;;;;;;51.07;23.33;;;;;;;2.93;79.98;100406.47;5003084;28;20239;-71
2021/12/14 09:11:01;;;;;;;49.50;24.50;;;;;;;2.23;82.37;100433.19;5005302;28;20236;-71
2021/12/14 09:13:29;;;;;;;49.97;24.47;;;;;;;2.77;80.04;100409.34;5008132;28;20243;-71
2021/12/14 09:16:04;;;;;;;55.50;25.00;;;;;;;2.77;78.98;100413.78;5007327;28;20768;-71
2021/12/14 09:18:38;;;;;;;57.53;29.10;;;;;;;3.35;77.43;100416.78;5003037;28;20241;-71
2021/12/14 09:21:12;;;;;;;64.13;29.20;;;;;;;2.97;78.30;100410.59;5007418;28;20220;-71
2021/12/14 09:23:43;;;;;;;63.50;28.93;;;;;;;3.58;76.17;100408.09;5006784;28;20231;-71
2021/12/14 09:26:19;;;;;;;52.93;25.60;;;;;;;2.97;78.51;100428.22;4999853;28;20232;-71
2021/12/14 09:28:48;;;;;;;55.60;28.27;;;;;;;2.75;78.05;100424.41;5005979;28;20599;-71
2021/12/14 09:31:21;;;;;;;53.67;26.00;;;;;;;3.29;77.18;100419.81;5007162;28;20221;-71
2021/12/14 09:33:51;;;;;;;56.00;25.20;;;;;;;2.44;81.36;100462.50;5007244;28;20249;-72
2021/12/14 09:36:19;;;;;;;53.93;25.37;;;;;;;1.35;82.51;100462.41;5006926;28;20588;-71
2021/12/14 09:39:03;;;;;;;53.47;25.47;;;;;;;3.06;79.26;100446.84;5006203;28;20236;-71
2021/12/14 09:41:33;;;;;;;58.50;26.90;;;;;;;2.20;82.03;100475.50;5007345;28;20630;-71
2021/12/14 09:44:04;;;;;;;51.17;26.20;;;;;;;2.77;80.73;100458.56;5013572;28;20260;-72
2021/12/14 09:46:32;;;;;;;56.33;27.13;;;;;;;2.68;80.72;100455.59;5005539;28;20233;-72
2021/12/14 09:49:02;;;;;;;53.97;27.90;;;;;;;2.81;79.59;100431.03;5006466;28;20237;-71
2021/12/14 09:51:52;;;;;;;60.17;26.30;;;;;;;2.98;77.96;100432.53;5007558;28;20217;-72
2021/12/14 09:54:23;;;;;;;57.17;28.03;;;;;;;3.28;78.33;100442.72;5002565;28;20229;-71
2021/12/14 09:57:00;;;;;;;56.20;26.30;;;;;;;3.82;75.53;100436.28;5003613;28;20237;-72
2021/12/14 09:59:27;;;;;;;51.07;25.70;;;;;;;1.13;85.75;100503.13;5005905;28;20240;-72
2021/12/14 10:01:59;;;;;;;45.77;25.10;;;;;;;0.98;87.80;100509.31;5006299;28;20622;-71
2021/12/14 10:04:37;;;;;;;49.67;25.20;;;;;;;2.75;81.09;100444.63;5006422;28;20229;-71
2021/12/14 10:07:08;;;;;;;55.10;24.83;;;;;;;1.37;84.15;100484.19;5004727;28;20255;-72
2021/12/14 10:09:42;;;;;;;48.53;24.80;;;;;;;1.79;84.53;100479.00;5016582;28;20229;-71
2021/12/14 10:14:50;;;;;;;43.37;22.83;;;;;;;1.77;82.98;100487.00;5006386;28;21465;-72
2021/12/14 10:17:20;;;;;;;49.13;26.77;;;;;;;3.08;80.09;100438.00;4997939;28;20221;-72
2021/12/14 10:19:48;;;;;;;41.93;23.77;;;;;;;2.28;82.89;100468.78;5002717;28;20229;-71
2021/12/14 10:22:23;;;;;;;46.93;24.87;;;;;;;0.89;85.98;100499.34;5006100;28;20577;-71
2021/12/14 10:24:57;;;;;;;46.63;25.30;;;;;;;1.46;85.57;100474.91;4998387;28;20234;-71
2021/12/14 10:27:29;;;;;;;43.03;23.03;;;;;;;2.79;80.78;100422.41;5005000;28;20224;-71
2021/12/14 10:29:59;;;;;;;36.40;22.67;;;;;;;2.90;78.68;100430.44;5007073;28;20234;-72
2021/12/14 10:32:31;;;;;;;35.43;21.50;;;;;;;1.88;82.48;100487.13;5005449;28;20225;-71
2021/12/14 10:35:07;;;;;;;34.33;21.37;;;;;;;1.98;82.23;100471.63;5005157;28;20622;-71
2021/12/14 10:43:18;;;;;;;37.87;22.67;;;;;;;2.56;79.07;100416.06;4998191;28;20233;-71
2021/12/14 10:45:54;;;;;;;34.67;20.37;;;;;;;2.75;78.01;100419.16;5005557;28;20782;-71
2021/12/14 10:48:26;;;;;;;36.67;22.40;;;;;;;3.26;76.52;100413.00;5005476;28;20224;-71
2021/12/14 10:50:58;;;;;;;34.40;21.87;;;;;;;3.04;76.91;100419.75;5003870;28;20229;-71
2021/12/14 10:53:26;;;;;;;35.30;21.80;;;;;;;3.27;76.36;100429.66;5010895;28;20230;-71
2021/12/14 10:55:59;;;;;;;38.73;23.40;;;;;;;3.08;76.61;100425.66;4997143;28;20631;-71
2021/12/14 10:58:28;;;;;;;40.00;23.60;;;;;;;3.12;76.80;100428.91;5004077;28;20225;-71
2021/12/14 11:03:48;;;;;;;39.20;22.20;;;;;;;2.11;80.40;100445.34;5040221;28;20639;-70
2021/12/14 11:06:22;;;;;;;35.53;21.37;;;;;;;2.20;79.60;100438.66;4985900;28;20235;-69
2021/12/14 11:11:34;;;;;;;31.27;20.97;;;;;;;1.68;82.83;100469.16;5002007;28;20254;-70
2021/12/14 11:14:06;;;;;;;35.37;20.27;;;;;;;2.28;79.24;100447.72;4999073;28;20236;-70
2021/12/14 11:19:35;;;;;;;33.63;21.87;;;;;;;2.75;75.81;100447.25;4992486;28;20221;-69
2021/12/14 11:22:09;;;;;;;34.87;23.17;;;;;;;2.66;76.60;100449.59;5000807;28;20260;-69
2021/12/14 11:24:38;;;;;;;32.87;21.77;;;;;;;2.62;76.61;100453.38;4993101;28;20252;-69
2021/12/14 11:27:23;;;;;;;33.60;22.87;;;;;;;3.11;75.85;100445.72;5001733;28;20236;-72
2021/12/14 11:30:18;;;;;;;32.60;21.30;;;;;;;0.90;83.97;100480.03;5009487;28;20233;-70
2021/12/14 11:33:05;;;;;;;33.47;20.33;;;;;;;2.17;80.51;100465.16;5000524;28;21684;-70
2021/12/14 11:35:37;;;;;;;31.97;21.00;;;;;;;2.74;76.91;100464.88;5001084;28;20233;-69
2021/12/14 11:38:12;;;;;;;32.27;22.10;;;;;;;2.97;76.15;100460.69;5001662;28;20236;-71
2021/12/14 11:40:39;;;;;;;30.73;20.83;;;;;;;2.73;76.50;100454.44;5002172;28;20613;-69
2021/12/14 11:43:16;;;;;;;30.00;19.17;;;;;;;3.11;75.54;100461.53;5009064;28;20236;-70
2021/12/14 11:45:47;;;;;;;32.10;21.07;;;;;;;3.38;74.75;100451.72;5001713;28;20236;-69
2021/12/14 11:48:29;;;;;;;31.17;20.67;;;;;;;3.78;73.49;100451.50;5009090;28;20225;-69
2021/12/14 11:50:57;;;;;;;30.13;20.57;;;;;;;3.30;74.73;100458.44;5004848;28;20229;-70
2021/12/14 11:53:24;;;;;;;31.77;21.20;;;;;;;3.65;73.47;100448.06;4995589;28;20245;-70
2021/12/14 11:55:54;;;;;;;30.03;20.27;;;;;;;3.41;74.29;100442.75;4984650;28;20245;-71
2021/12/14 11:58:36;;;;;;;28.37;20.63;;;;;;;2.93;75.73;100447.81;5001222;28;20229;-69
2021/12/14 12:01:06;;;;;;;29.70;19.37;;;;;;;0.93;81.51;100485.94;5008251;28;20282;-69
2021/12/14 12:03:51;;;;;;;29.67;20.60;;;;;;;1.09;84.56;100499.00;4999581;28;20241;-71
2021/12/14 12:09:33;;;;;;;26.77;17.90;;;;;;;0.85;84.17;100484.72;4997990;28;20229;-71
2021/12/14 12:12:02;;;;;;;28.67;19.93;;;;;;;0.90;84.67;100494.00;5008464;28;20220;-71
2021/12/14 12:14:32;;;;;;;26.70;18.10;;;;;;;1.28;83.92;100476.84;4997995;28;20242;-70
2021/12/14 12:17:27;;;;;;;28.63;18.80;;;;;;;1.41;83.87;100476.94;4990100;28;20240;-70
2021/12/14 12:20:04;;;;;;;25.37;18.10;;;;;;;2.47;81.27;100442.06;4986855;28;20236;-70
2021/12/14 12:22:41;;;;;;;27.63;18.73;;;;;;;0.96;85.71;100508.53;4987474;28;20237;-69
2021/12/14 12:25:16;;;;;;;28.80;19.03;;;;;;;0.49;86.05;100496.41;4985761;28;20229;-71
2021/12/14 12:27:53;;;;;;;28.43;18.27;;;;;;;0.66;87.84;100498.91;4985712;28;20245;-70
2021/12/14 12:30:36;;;;;;;26.40;17.33;;;;;;;0.93;87.16;100469.34;4979438;28;20238;-69